Valdez, Alaska
Current Conditions -  °F | °C
As of 9:36 PM on Monday 20 Oct 2014 (Local Time) from PAVD Reporting Station
Overcast Overcast  
Wind Chill: 36°   Ceiling: 4000
Heat Index: 36°   Visibility: 10mi
Dew Point: 30°   Wind: 0mph
Humidity: 81%   Direction: NA
Pressure: 29.27"   Gusts: NA
Location:  61.13°N, 146.35°W
Report Text: PAVD 210536Z 00000KT 10SM FEW010 BKN040 OVC055 02/M01 A2927 RMK AO1 0447Z WEA: -RA RAB30 TWR WND 16004KT
Loading
Personal Weather Stations






























Interactive Weather Map
Tropical Storm Tracking
New forecast layout! Learn more

10-Day Weather Forecast

Advertisements
Track Severe Weather on mobile